createdAt,value
2017-09-18T00:00:14.627Z,16.70
2017-09-18T00:01:17.117Z,13.65
2017-09-18T00:02:19.623Z,14.20
2017-09-18T00:03:22.100Z,12.90
2017-09-18T00:04:24.603Z,18.87
2017-09-18T00:05:27.097Z,18.10
2017-09-18T00:06:29.670Z,15.15
2017-09-18T00:07:32.231Z,14.48
2017-09-18T00:08:35.555Z,16.92
2017-09-18T00:09:38.113Z,21.70
2017-09-18T00:10:40.609Z,16.00
2017-09-18T00:11:43.115Z,17.10
2017-09-18T00:12:45.562Z,14.68
2017-09-18T00:13:48.804Z,16.40
2017-09-18T00:14:52.042Z,18.25
2017-09-18T00:15:56.165Z,16.70
2017-09-18T00:16:58.711Z,13.68
2017-09-18T00:18:01.287Z,13.75
2017-09-18T00:19:03.801Z,15.43
2017-09-18T00:20:07.024Z,14.18
2017-09-18T00:21:09.684Z,14.45
2017-09-18T00:22:12.226Z,16.10
2017-09-18T00:23:14.709Z,16.17
2017-09-18T00:24:17.278Z,15.05
2017-09-18T00:25:19.794Z,16.23
2017-09-18T00:26:22.309Z,16.10
2017-09-18T00:27:24.815Z,14.00
2017-09-18T00:28:27.415Z,15.13
2017-09-18T00:29:30.002Z,17.60
2017-09-18T00:30:32.628Z,14.65
2017-09-18T00:31:35.100Z,14.73
2017-09-18T00:32:37.710Z,16.05
2017-09-18T00:33:40.217Z,13.38
2017-09-18T00:34:42.719Z,14.65
2017-09-18T00:35:45.372Z,13.60
2017-09-18T00:36:47.899Z,14.27
2017-09-18T00:37:51.281Z,14.25
2017-09-18T00:38:53.944Z,13.40
2017-09-18T00:39:57.318Z,14.52
2017-09-18T00:40:59.903Z,11.60
2017-09-18T00:42:03.267Z,11.23
2017-09-18T00:43:05.790Z,14.05
2017-09-18T00:44:10.027Z,15.98
2017-09-18T00:45:13.066Z,12.95
2017-09-18T00:46:15.657Z,11.70
2017-09-18T00:47:19.037Z,13.50
2017-09-18T00:48:21.537Z,13.27
2017-09-18T00:49:24.781Z,15.25
2017-09-18T00:50:27.303Z,14.00
2017-09-18T00:51:29.776Z,13.65
2017-09-18T00:52:33.012Z,12.98
2017-09-18T00:53:36.250Z,11.73
2017-09-18T00:54:42.558Z,11.15
2017-09-18T00:55:45.093Z,12.27
2017-09-18T00:56:48.385Z,13.18
2017-09-18T00:57:50.988Z,12.10
2017-09-18T00:58:53.491Z,11.82
2017-09-18T00:59:56.739Z,10.18
2017-09-18T01:01:00.038Z,12.18
2017-09-18T01:02:02.632Z,11.45
2017-09-18T01:03:05.104Z,11.30
2017-09-18T01:04:07.598Z,12.25
2017-09-18T01:05:10.221Z,14.87
2017-09-18T01:06:12.679Z,9.63
2017-09-18T01:07:15.165Z,10.40
2017-09-18T01:08:17.728Z,12.25
2017-09-18T01:09:20.203Z,8.48
2017-09-18T01:10:22.702Z,9.77
2017-09-18T01:11:25.964Z,11.15
2017-09-18T01:12:29.181Z,11.35
2017-09-18T01:13:31.704Z,8.32
2017-09-18T01:14:34.178Z,8.75
2017-09-18T01:15:36.653Z,9.80
2017-09-18T01:16:39.173Z,11.25
2017-09-18T01:17:43.218Z,9.35
2017-09-18T01:18:45.684Z,11.48
2017-09-18T01:19:48.943Z,10.23
2017-09-18T01:20:51.437Z,9.13
2017-09-18T01:21:55.444Z,7.85
2017-09-18T01:22:57.946Z,9.95
2017-09-18T01:24:00.491Z,12.02
2017-09-18T01:25:03.007Z,9.90
2017-09-18T01:26:05.512Z,8.05
2017-09-18T01:27:08.045Z,7.93
2017-09-18T01:28:11.624Z,10.40
2017-09-18T01:29:14.146Z,7.85
2017-09-18T01:30:16.619Z,9.23
2017-09-18T01:31:19.775Z,8.20
2017-09-18T01:32:22.250Z,9.20
2017-09-18T01:33:24.818Z,8.32
2017-09-18T01:34:28.126Z,13.77
2017-09-18T01:35:30.605Z,8.98
2017-09-18T01:36:33.867Z,8.23
2017-09-18T01:37:36.429Z,8.55
2017-09-18T01:38:38.964Z,8.75
2017-09-18T01:39:41.472Z,9.35
2017-09-18T01:40:44.597Z,7.25
2017-09-18T01:41:47.133Z,10.90
2017-09-18T01:42:49.613Z,8.40
2017-09-18T01:43:52.872Z,8.10
2017-09-18T01:44:55.356Z,7.62
2017-09-18T01:45:57.936Z,7.65
2017-09-18T01:47:00.405Z,9.98
2017-09-18T01:48:02.876Z,7.72
2017-09-18T01:49:05.383Z,12.20
2017-09-18T01:50:08.652Z,11.05
2017-09-18T01:51:11.131Z,10.68
2017-09-18T01:52:15.119Z,8.57
2017-09-18T01:53:18.360Z,8.90
2017-09-18T01:54:20.942Z,12.60
2017-09-18T01:55:23.553Z,9.43
2017-09-18T01:56:26.105Z,9.15
2017-09-18T01:57:28.580Z,9.30
2017-09-18T01:58:31.060Z,8.35
2017-09-18T01:59:33.527Z,9.18
2017-09-18T02:00:36.069Z,14.20
2017-09-18T02:01:38.649Z,10.07
2017-09-18T02:02:41.886Z,9.68
2017-09-18T02:03:44.546Z,10.07
2017-09-18T02:04:47.067Z,12.48
2017-09-18T02:05:49.639Z,10.02
2017-09-18T02:06:52.137Z,8.32
2017-09-18T02:07:54.627Z,9.05
2017-09-18T02:08:57.891Z,8.57
2017-09-18T02:10:01.174Z,11.57
2017-09-18T02:11:03.653Z,9.88
2017-09-18T02:12:06.889Z,11.45
2017-09-18T02:13:10.169Z,12.10
2017-09-18T02:14:12.686Z,12.27
2017-09-18T02:15:15.156Z,10.65
2017-09-18T02:16:17.724Z,8.18
2017-09-18T02:17:20.224Z,11.90
2017-09-18T02:18:22.795Z,9.23
2017-09-18T02:19:25.251Z,9.73
2017-09-18T02:20:27.876Z,10.15
2017-09-18T02:21:30.351Z,9.23
2017-09-18T02:22:32.877Z,11.50
2017-09-18T02:23:35.429Z,11.10
2017-09-18T02:24:37.887Z,11.60
2017-09-18T02:25:40.353Z,9.55
2017-09-18T02:26:42.812Z,8.15
2017-09-18T02:27:45.276Z,8.25
2017-09-18T02:28:48.532Z,10.82
2017-09-18T02:29:51.781Z,10.05
2017-09-18T02:30:55.349Z,9.38
2017-09-18T02:31:57.867Z,12.40
2017-09-18T02:33:00.419Z,11.15
2017-09-18T02:34:02.948Z,10.57
2017-09-18T02:35:05.415Z,10.57
2017-09-18T02:36:08.220Z,9.90
2017-09-18T02:37:10.689Z,9.50
2017-09-18T02:38:13.943Z,9.60
2017-09-18T02:39:17.231Z,11.82
2017-09-18T02:40:19.715Z,8.52
2017-09-18T02:41:22.215Z,8.73
2017-09-18T02:42:25.454Z,12.05
2017-09-18T02:43:28.713Z,8.00
2017-09-18T02:44:32.064Z,9.73
2017-09-18T02:45:34.552Z,10.23
2017-09-18T02:46:37.008Z,8.32
2017-09-18T02:47:39.488Z,9.50
2017-09-18T02:48:42.073Z,8.68
2017-09-18T02:49:45.359Z,8.20
2017-09-18T02:50:47.878Z,10.23
2017-09-18T02:51:50.355Z,10.35
2017-09-18T02:52:52.814Z,8.38
2017-09-18T02:53:55.276Z,9.05
2017-09-18T02:54:58.552Z,11.20
2017-09-18T02:56:01.083Z,11.00
2017-09-18T02:57:03.547Z,10.27
2017-09-18T02:58:06.033Z,11.80
2017-09-18T02:59:08.501Z,10.15
2017-09-18T03:00:11.022Z,9.32
2017-09-18T03:01:13.480Z,9.48
2017-09-18T03:02:16.714Z,9.05
2017-09-18T03:03:19.228Z,11.43
2017-09-18T03:04:21.698Z,9.13
2017-09-18T03:05:24.171Z,9.60
2017-09-18T03:06:26.687Z,10.90
2017-09-18T03:07:29.163Z,10.20
2017-09-18T03:08:31.714Z,9.80
2017-09-18T03:09:34.552Z,10.07
2017-09-18T03:10:37.534Z,11.18
2017-09-18T03:11:40.020Z,9.80
2017-09-18T03:12:42.480Z,13.30
2017-09-18T03:13:45.727Z,9.70
2017-09-18T03:14:48.197Z,13.52
2017-09-18T03:15:50.707Z,11.12
2017-09-18T03:16:53.228Z,10.68
2017-09-18T03:17:56.459Z,10.38
2017-09-18T03:18:59.688Z,12.98
2017-09-18T03:20:03.692Z,10.50
2017-09-18T03:21:06.509Z,11.48
2017-09-18T03:22:08.972Z,9.32
2017-09-18T03:23:11.460Z,9.88
2017-09-18T03:24:13.943Z,9.52
2017-09-18T03:25:16.505Z,10.95
2017-09-18T03:26:19.829Z,12.52
2017-09-18T03:27:22.279Z,11.93
2017-09-18T03:28:24.759Z,13.38
2017-09-18T03:29:27.221Z,12.90
2017-09-18T03:30:30.583Z,13.77
2017-09-18T03:31:33.046Z,9.07
2017-09-18T03:32:35.519Z,11.52
2017-09-18T03:33:38.046Z,10.88
2017-09-18T03:34:40.595Z,11.50
2017-09-18T03:35:43.061Z,12.07
2017-09-18T03:36:45.519Z,10.82
2017-09-18T03:37:48.056Z,13.30
2017-09-18T03:38:50.556Z,13.20
2017-09-18T03:39:54.128Z,14.90
2017-09-18T03:40:56.603Z,12.52
2017-09-18T03:41:59.111Z,10.50
2017-09-18T03:43:01.587Z,14.23
2017-09-18T03:44:04.829Z,13.48
2017-09-18T03:45:08.080Z,12.93
2017-09-18T03:46:10.563Z,12.52
2017-09-18T03:47:13.038Z,13.35
2017-09-18T03:48:15.508Z,14.05
2017-09-18T03:49:17.975Z,16.15
2017-09-18T03:50:21.256Z,14.75
2017-09-18T03:51:23.737Z,14.13
2017-09-18T03:52:26.970Z,15.65
2017-09-18T03:53:30.244Z,12.50
2017-09-18T03:54:32.766Z,16.17
2017-09-18T03:55:35.268Z,17.02
2017-09-18T03:56:38.533Z,14.73
2017-09-18T03:57:41.011Z,14.57
2017-09-18T03:58:43.480Z,18.42
2017-09-18T03:59:46.735Z,17.02
2017-09-18T04:00:49.272Z,17.80
2017-09-18T04:01:51.755Z,14.70
2017-09-18T04:02:55.005Z,19.12
2017-09-18T04:03:58.256Z,14.90
2017-09-18T04:05:00.948Z,15.05
2017-09-18T04:06:03.527Z,14.32
2017-09-18T04:07:05.991Z,17.65
2017-09-18T04:08:08.453Z,15.65
2017-09-18T04:09:11.691Z,16.05
2017-09-18T04:10:14.932Z,16.95
2017-09-18T04:11:18.268Z,21.77
2017-09-18T04:12:21.534Z,19.02
2017-09-18T04:13:24.789Z,16.23
2017-09-18T04:14:27.315Z,17.50
2017-09-18T04:15:29.811Z,18.87
2017-09-18T04:16:33.041Z,15.95
2017-09-18T04:17:35.528Z,21.37
2017-09-18T04:18:38.023Z,17.75
2017-09-18T04:19:40.515Z,20.80
2017-09-18T04:20:43.005Z,17.83
2017-09-18T04:21:45.482Z,18.00
2017-09-18T04:22:48.709Z,18.45
2017-09-18T04:23:51.267Z,18.45
2017-09-18T04:24:53.741Z,20.50
2017-09-18T04:25:56.261Z,18.87
2017-09-18T04:26:58.712Z,19.48
2017-09-18T04:28:01.995Z,17.00
2017-09-18T04:29:04.482Z,19.23
2017-09-18T04:30:06.947Z,22.80
2017-09-18T04:31:09.462Z,19.00
2017-09-18T04:32:12.172Z,21.65
2017-09-18T04:33:15.419Z,19.45
2017-09-18T04:34:18.654Z,23.70
2017-09-18T04:35:21.909Z,23.87
2017-09-18T04:36:25.175Z,19.60
2017-09-18T04:37:27.640Z,18.23
2017-09-18T04:38:31.663Z,18.98
2017-09-18T04:39:34.176Z,20.67
2017-09-18T04:40:36.841Z,19.00
2017-09-18T04:41:39.430Z,18.42
2017-09-18T04:42:42.791Z,19.87
2017-09-18T04:43:45.290Z,19.80
2017-09-18T04:44:48.548Z,20.52
2017-09-18T04:45:51.009Z,20.10
2017-09-18T04:46:53.509Z,18.00
2017-09-18T04:47:56.019Z,17.92
2017-09-18T04:48:58.561Z,17.55
2017-09-18T04:50:01.095Z,19.30
2017-09-18T04:51:03.584Z,18.65
2017-09-18T04:52:06.955Z,17.50
2017-09-18T04:53:09.439Z,21.17
2017-09-18T04:54:12.672Z,23.05
2017-09-18T04:55:18.034Z,23.00
2017-09-18T04:56:20.518Z,19.60
2017-09-18T04:57:22.999Z,17.33
2017-09-18T04:58:25.476Z,20.45
2017-09-18T04:59:27.940Z,18.37
2017-09-18T05:00:30.464Z,19.67
2017-09-18T05:01:32.928Z,20.15
2017-09-18T05:02:36.156Z,20.42
2017-09-18T05:03:38.628Z,21.77
2017-09-18T05:04:41.084Z,19.08
2017-09-18T05:05:43.571Z,20.70
2017-09-18T05:06:46.063Z,18.80
2017-09-18T05:07:49.305Z,20.65
2017-09-18T05:08:52.571Z,18.17
2017-09-18T05:09:55.086Z,18.55
2017-09-18T05:10:58.325Z,23.20
2017-09-18T05:12:02.194Z,21.77
2017-09-18T05:13:04.680Z,16.10
2017-09-18T05:14:07.189Z,17.02
2017-09-18T05:15:10.374Z,16.67
2017-09-18T05:16:13.611Z,15.57
2017-09-18T05:17:16.897Z,21.73
2017-09-18T05:18:19.401Z,17.37
2017-09-18T05:19:21.869Z,19.80
2017-09-18T05:20:24.324Z,16.42
2017-09-18T05:21:27.567Z,15.00
2017-09-18T05:22:30.803Z,18.30
2017-09-18T05:23:34.078Z,17.27
2017-09-18T05:24:36.578Z,15.40
2017-09-18T05:25:39.811Z,15.05
2017-09-18T05:26:43.067Z,15.60
2017-09-18T05:27:46.334Z,16.87
2017-09-18T05:28:48.813Z,18.35
2017-09-18T05:29:51.279Z,16.08
2017-09-18T05:30:53.775Z,18.90
2017-09-18T05:31:56.234Z,15.43
2017-09-18T05:32:58.719Z,14.40
2017-09-18T05:34:01.188Z,16.50
2017-09-18T05:35:03.671Z,17.90
2017-09-18T05:36:06.176Z,14.77
2017-09-18T05:37:08.648Z,17.92
2017-09-18T05:38:11.872Z,17.60
2017-09-18T05:39:15.128Z,22.50
2017-09-18T05:40:18.363Z,16.87
2017-09-18T05:41:21.618Z,20.85
2017-09-18T05:42:24.101Z,17.15
2017-09-18T05:43:28.206Z,18.12
2017-09-18T05:44:30.678Z,19.90
2017-09-18T05:45:33.256Z,18.65
2017-09-18T05:46:35.724Z,18.37
2017-09-18T05:47:38.183Z,17.25
2017-09-18T05:48:41.559Z,20.15
2017-09-18T05:49:44.026Z,19.33
2017-09-18T05:50:46.616Z,22.70
2017-09-18T05:51:49.088Z,18.33
2017-09-18T05:52:51.595Z,18.00
2017-09-18T05:53:54.127Z,18.75
2017-09-18T05:54:56.597Z,16.83
2017-09-18T05:55:59.829Z,17.35
2017-09-18T05:57:04.361Z,24.87
2017-09-18T05:58:06.825Z,16.45
2017-09-18T05:59:10.067Z,21.60
2017-09-18T06:00:13.300Z,18.30
2017-09-18T06:01:16.494Z,19.70
2017-09-18T06:02:19.049Z,22.48
2017-09-18T06:03:21.533Z,18.50
2017-09-18T06:04:23.999Z,19.42
2017-09-18T06:05:26.479Z,17.40
2017-09-18T06:06:28.962Z,18.85
2017-09-18T06:07:31.424Z,17.77
2017-09-18T06:08:33.921Z,17.95
2017-09-18T06:09:37.144Z,17.75
2017-09-18T06:10:39.728Z,17.73
2017-09-18T06:11:42.195Z,16.87
2017-09-18T06:12:46.300Z,17.45
2017-09-18T06:13:48.870Z,16.10
2017-09-18T06:14:51.557Z,21.52
2017-09-18T06:15:54.022Z,19.90
2017-09-18T06:16:56.483Z,17.12
2017-09-18T06:17:59.736Z,15.90
2017-09-18T06:19:02.968Z,17.67
2017-09-18T06:20:06.235Z,21.05
2017-09-18T06:21:08.802Z,16.58
2017-09-18T06:22:11.262Z,22.52
2017-09-18T06:23:14.499Z,15.20
2017-09-18T06:24:17.733Z,13.55
2017-09-18T06:25:20.295Z,13.60
2017-09-18T06:26:22.761Z,15.20
2017-09-18T06:27:25.244Z,13.55
2017-09-18T06:28:27.708Z,11.07
2017-09-18T06:29:30.395Z,13.30
2017-09-18T06:30:32.934Z,11.45
2017-09-18T06:31:35.628Z,9.20
2017-09-18T06:32:39.184Z,9.68
2017-09-18T06:33:42.412Z,9.60
2017-09-18T06:34:44.996Z,13.73
2017-09-18T06:35:47.583Z,8.90
2017-09-18T06:36:50.859Z,13.25
2017-09-18T06:37:53.399Z,8.85
2017-09-18T06:38:55.933Z,10.82
2017-09-18T06:39:58.520Z,12.27
2017-09-18T06:41:01.838Z,8.43
2017-09-18T06:42:05.200Z,8.75
2017-09-18T06:43:07.697Z,10.38
2017-09-18T06:44:10.256Z,6.93
2017-09-18T06:45:13.684Z,8.18
2017-09-18T06:46:16.949Z,8.20
2017-09-18T06:47:19.487Z,8.13
2017-09-18T06:48:22.031Z,7.50
2017-09-18T06:49:24.586Z,6.72
2017-09-18T06:50:27.069Z,8.82
2017-09-18T06:51:29.617Z,16.52
2017-09-18T06:52:32.216Z,9.85
2017-09-18T06:53:34.719Z,9.35
2017-09-18T06:54:38.133Z,9.13
2017-09-18T06:55:40.752Z,7.05
2017-09-18T06:56:43.303Z,7.97
2017-09-18T06:57:45.958Z,7.53
2017-09-18T06:58:49.256Z,8.60
2017-09-18T06:59:52.011Z,9.35
2017-09-18T07:00:54.491Z,10.68
2017-09-18T07:01:56.974Z,9.38
2017-09-18T07:03:00.347Z,9.30
2017-09-18T07:04:02.899Z,9.25
2017-09-18T07:05:05.380Z,7.53
2017-09-18T07:06:08.595Z,7.47
2017-09-18T07:07:11.363Z,7.20
2017-09-18T07:08:13.900Z,8.32
2017-09-18T07:09:16.413Z,6.40
2017-09-18T07:10:18.999Z,6.95
2017-09-18T07:11:21.541Z,9.05
2017-09-18T07:12:24.124Z,7.60
2017-09-18T07:13:26.724Z,7.85
2017-09-18T07:14:29.225Z,8.63
2017-09-18T07:15:32.695Z,6.87
2017-09-18T07:16:35.377Z,6.80
2017-09-18T07:17:38.294Z,10.68
2017-09-18T07:18:40.904Z,7.87
2017-09-18T07:19:43.479Z,11.15
2017-09-18T07:20:46.224Z,7.10
2017-09-18T07:21:48.773Z,7.07
2017-09-18T07:22:51.597Z,6.87
2017-09-18T07:23:54.259Z,6.60
2017-09-18T07:24:56.898Z,8.38
2017-09-18T07:25:59.473Z,9.85
2017-09-18T07:27:02.733Z,10.27
2017-09-18T07:28:05.317Z,7.50
2017-09-18T07:29:08.671Z,8.80
2017-09-18T07:30:11.381Z,9.00
2017-09-18T07:31:13.971Z,10.95
2017-09-18T07:32:16.489Z,7.22
2017-09-18T07:33:19.030Z,7.85
2017-09-18T07:34:21.605Z,8.88
2017-09-18T07:35:24.178Z,7.95
2017-09-18T07:36:26.976Z,7.10
2017-09-18T07:37:30.421Z,8.18
2017-09-18T07:38:33.909Z,8.05
2017-09-18T07:39:36.389Z,9.65
2017-09-18T07:40:38.971Z,8.32
2017-09-18T07:41:41.546Z,6.87
2017-09-18T07:42:44.075Z,8.45
2017-09-18T07:43:47.452Z,6.85
2017-09-18T07:44:49.984Z,6.95
2017-09-18T07:45:53.082Z,6.87
2017-09-18T07:46:56.384Z,6.60
2017-09-18T07:47:58.893Z,7.00
2017-09-18T07:49:01.516Z,8.90
2017-09-18T07:50:03.995Z,8.02
2017-09-18T07:51:06.553Z,7.05
2017-09-18T07:52:09.089Z,7.78
2017-09-18T07:53:11.649Z,6.35
2017-09-18T07:54:14.172Z,11.38
2017-09-18T07:55:16.725Z,7.45
2017-09-18T07:56:19.358Z,6.65
2017-09-18T07:57:22.644Z,6.57
2017-09-18T07:58:25.300Z,6.43
2017-09-18T07:59:27.837Z,6.62
2017-09-18T08:00:30.391Z,7.10
2017-09-18T08:01:33.757Z,8.65
2017-09-18T08:02:36.260Z,7.40
2017-09-18T08:03:39.544Z,7.35
2017-09-18T08:04:42.123Z,6.37
2017-09-18T08:05:44.693Z,8.60
2017-09-18T08:06:47.219Z,6.90
2017-09-18T08:07:49.708Z,11.00
2017-09-18T08:08:53.020Z,7.05
2017-09-18T08:09:55.511Z,7.78
2017-09-18T08:10:57.991Z,6.37
2017-09-18T08:12:00.473Z,7.30
2017-09-18T08:13:03.084Z,10.18
2017-09-18T08:14:05.679Z,6.22
2017-09-18T08:15:08.933Z,7.50
2017-09-18T08:16:11.441Z,6.87
2017-09-18T08:17:13.935Z,8.10
2017-09-18T08:18:17.091Z,6.20
2017-09-18T08:19:19.757Z,11.57
2017-09-18T08:20:22.254Z,7.78
2017-09-18T08:21:24.760Z,6.28
2017-09-18T08:22:27.244Z,8.82
2017-09-18T08:23:29.737Z,6.00
2017-09-18T08:24:32.264Z,8.20
2017-09-18T08:25:34.797Z,10.20
2017-09-18T08:26:38.115Z,7.62
2017-09-18T08:27:40.602Z,8.82
2017-09-18T08:28:43.090Z,9.88
2017-09-18T08:29:45.648Z,8.90
2017-09-18T08:30:48.193Z,9.88
2017-09-18T08:31:50.683Z,8.45
2017-09-18T08:32:54.024Z,9.00
2017-09-18T08:33:56.531Z,9.27
2017-09-18T08:34:59.824Z,8.05
2017-09-18T08:36:02.330Z,11.10
2017-09-18T08:37:05.649Z,9.32
2017-09-18T08:38:08.175Z,7.93
2017-09-18T08:39:11.423Z,8.82
2017-09-18T08:40:14.681Z,7.15
2017-09-18T08:41:18.055Z,9.30
2017-09-18T08:42:20.609Z,11.15
2017-09-18T08:43:23.141Z,10.65
2017-09-18T08:44:25.636Z,7.32
2017-09-18T08:45:28.204Z,9.82
2017-09-18T08:46:30.727Z,9.63
2017-09-18T08:47:33.247Z,9.02
2017-09-18T08:48:35.854Z,8.80
2017-09-18T08:49:38.411Z,10.05
2017-09-18T08:50:40.919Z,7.87
2017-09-18T08:51:43.569Z,9.60
2017-09-18T08:52:46.215Z,9.70
2017-09-18T08:53:48.768Z,8.82
2017-09-18T08:54:51.400Z,8.00
2017-09-18T08:55:54.170Z,8.95
2017-09-18T08:56:56.684Z,9.32
2017-09-18T08:57:59.197Z,8.82
2017-09-18T08:59:01.726Z,7.32
2017-09-18T09:00:04.392Z,6.37
2017-09-18T09:01:07.657Z,6.75
2017-09-18T09:02:10.247Z,7.00
2017-09-18T09:03:12.994Z,5.85
2017-09-18T09:04:15.622Z,5.80
2017-09-18T09:05:18.211Z,5.30
2017-09-18T09:06:20.706Z,8.35
2017-09-18T09:07:23.468Z,5.55
2017-09-18T09:08:25.969Z,9.30
2017-09-18T09:09:28.510Z,8.32
2017-09-18T09:10:31.078Z,7.50
2017-09-18T09:11:34.433Z,6.35
2017-09-18T09:12:37.810Z,8.40
2017-09-18T09:13:40.321Z,7.07
2017-09-18T09:14:43.664Z,8.02
2017-09-18T09:15:47.437Z,7.85
2017-09-18T09:16:50.050Z,6.80
2017-09-18T09:17:52.629Z,7.50
2017-09-18T09:18:55.178Z,5.43
2017-09-18T09:19:58.541Z,6.35
2017-09-18T09:21:01.943Z,5.97
2017-09-18T09:22:05.286Z,8.23
2017-09-18T09:23:07.780Z,6.72
2017-09-18T09:24:11.059Z,6.05
2017-09-18T09:25:13.588Z,6.57
2017-09-18T09:26:16.135Z,7.20
2017-09-18T09:27:18.634Z,5.90
2017-09-18T09:28:21.961Z,5.93
2017-09-18T09:29:24.696Z,4.60
2017-09-18T09:30:27.396Z,8.10
2017-09-18T09:31:29.932Z,7.70
2017-09-18T09:32:32.434Z,6.62
2017-09-18T09:33:35.825Z,7.20
2017-09-18T09:34:38.391Z,6.65
2017-09-18T09:35:42.028Z,9.95
2017-09-18T09:36:45.547Z,6.65
2017-09-18T09:37:48.206Z,5.25
2017-09-18T09:38:50.705Z,8.10
2017-09-18T09:39:53.255Z,6.20
2017-09-18T09:40:55.783Z,8.10
2017-09-18T09:41:58.769Z,6.87
2017-09-18T09:43:01.330Z,8.18
2017-09-18T09:44:03.871Z,5.12
2017-09-18T09:45:07.143Z,7.40
2017-09-18T09:46:09.688Z,6.03
2017-09-18T09:47:12.307Z,5.60
2017-09-18T09:48:14.869Z,6.12
2017-09-18T09:49:17.371Z,9.45
2017-09-18T09:50:19.912Z,6.50
2017-09-18T09:51:22.423Z,10.35
2017-09-18T09:52:25.037Z,5.82
2017-09-18T09:53:28.377Z,5.25
2017-09-18T09:54:31.662Z,7.37
2017-09-18T09:55:34.192Z,5.85
2017-09-18T09:56:36.687Z,5.87
2017-09-18T09:57:39.244Z,6.82
2017-09-18T09:58:41.845Z,4.47
2017-09-18T09:59:44.368Z,5.03
2017-09-18T10:00:46.919Z,5.03
2017-09-18T10:01:49.471Z,5.32
2017-09-18T10:02:51.997Z,6.05
2017-09-18T10:03:55.431Z,5.28
2017-09-18T10:04:57.949Z,6.15
2017-09-18T10:06:00.451Z,6.68
2017-09-18T10:07:03.071Z,5.57
2017-09-18T10:08:05.592Z,5.35
2017-09-18T10:09:08.181Z,6.95
2017-09-18T10:10:11.572Z,6.07
2017-09-18T10:11:14.108Z,6.60
2017-09-18T10:12:16.672Z,8.50
2017-09-18T10:13:19.179Z,7.03
2017-09-18T10:14:21.704Z,6.90
2017-09-18T10:15:24.216Z,6.50
2017-09-18T10:16:26.751Z,9.75
2017-09-18T10:17:29.345Z,5.37
2017-09-18T10:18:31.827Z,6.03
2017-09-18T10:19:34.379Z,5.75
2017-09-18T10:20:36.896Z,5.45
2017-09-18T10:21:40.072Z,7.30
2017-09-18T10:22:42.656Z,9.02
2017-09-18T10:23:45.246Z,5.43
2017-09-18T10:24:47.821Z,7.20
2017-09-18T10:25:51.099Z,6.37
2017-09-18T10:26:53.662Z,6.47
2017-09-18T10:27:56.149Z,5.05
2017-09-18T10:28:58.724Z,6.10
2017-09-18T10:30:02.086Z,6.53
2017-09-18T10:31:05.380Z,6.25
2017-09-18T10:32:07.889Z,4.45
2017-09-18T10:33:10.403Z,4.72
2017-09-18T10:34:12.944Z,3.20
2017-09-18T10:35:15.467Z,5.35
2017-09-18T10:36:17.980Z,3.40
2017-09-18T10:37:20.476Z,2.97
2017-09-18T10:38:23.080Z,5.25
2017-09-18T10:39:26.067Z,4.12
2017-09-18T10:40:29.347Z,3.53
2017-09-18T10:41:31.877Z,4.05
2017-09-18T10:42:34.371Z,6.25
2017-09-18T10:43:36.859Z,4.55
2017-09-18T10:44:39.432Z,5.80
2017-09-18T10:45:41.966Z,6.53
2017-09-18T10:46:44.478Z,3.60
2017-09-18T10:47:47.098Z,3.95
2017-09-18T10:48:49.612Z,5.80
2017-09-18T10:49:52.975Z,4.43
2017-09-18T10:50:55.446Z,5.20
2017-09-18T10:51:57.928Z,3.62
2017-09-18T10:53:00.407Z,4.70
2017-09-18T10:54:02.871Z,9.23
2017-09-18T10:55:05.374Z,9.52
2017-09-18T10:56:08.634Z,5.70
2017-09-18T10:57:11.887Z,8.80
2017-09-18T10:58:14.339Z,5.50
2017-09-18T10:59:16.825Z,4.82
2017-09-18T11:00:19.288Z,6.20
2017-09-18T11:01:21.811Z,3.80
2017-09-18T11:02:25.131Z,2.75
2017-09-18T11:03:27.642Z,5.37
2017-09-18T11:04:30.852Z,3.12
2017-09-18T11:05:33.419Z,2.60
2017-09-18T11:06:35.898Z,3.65
2017-09-18T11:07:38.722Z,4.75
2017-09-18T11:08:41.211Z,4.50
2017-09-18T11:09:43.674Z,10.25
2017-09-18T11:10:46.131Z,2.45
2017-09-18T11:11:49.444Z,4.05
2017-09-18T11:12:52.019Z,2.45
2017-09-18T11:13:54.493Z,2.78
2017-09-18T11:14:56.947Z,4.10
2017-09-18T11:16:00.170Z,2.70
2017-09-18T11:17:03.427Z,3.42
2017-09-18T11:18:05.935Z,2.78
2017-09-18T11:19:08.379Z,2.20
2017-09-18T11:20:11.614Z,2.45
2017-09-18T11:21:14.163Z,3.35
2017-09-18T11:22:17.433Z,2.53
2017-09-18T11:23:20.463Z,3.37
2017-09-18T11:24:22.932Z,1.80
2017-09-18T11:25:25.840Z,2.90
2017-09-18T11:26:28.391Z,2.55
2017-09-18T11:27:31.011Z,5.22
2017-09-18T11:28:33.496Z,6.55
2017-09-18T11:29:36.004Z,4.95
2017-09-18T11:30:39.244Z,2.12
2017-09-18T11:31:41.711Z,4.25
2017-09-18T11:32:44.177Z,3.72
2017-09-18T11:33:46.646Z,2.05
2017-09-18T11:34:49.161Z,3.72
2017-09-18T11:35:51.641Z,2.45
2017-09-18T11:36:54.155Z,3.50
2017-09-18T11:37:57.011Z,3.15
2017-09-18T11:38:59.883Z,2.97
2017-09-18T11:40:02.347Z,2.60
2017-09-18T11:41:04.811Z,1.85
2017-09-18T11:42:08.067Z,3.20
2017-09-18T11:43:10.531Z,6.78
2017-09-18T11:44:13.035Z,2.00
2017-09-18T11:45:15.511Z,2.65
2017-09-18T11:46:18.784Z,1.80
2017-09-18T11:47:21.267Z,1.67
2017-09-18T11:48:23.752Z,1.80
2017-09-18T11:49:26.229Z,4.07
2017-09-18T11:50:28.700Z,2.60
2017-09-18T11:51:31.205Z,2.00
2017-09-18T11:52:34.506Z,1.40
2017-09-18T11:53:36.990Z,1.87
2017-09-18T11:54:40.245Z,1.83
2017-09-18T11:55:42.719Z,1.48
2017-09-18T11:56:45.252Z,1.67
2017-09-18T11:57:48.494Z,1.75
2017-09-18T11:58:51.051Z,1.48
2017-09-18T11:59:53.539Z,2.42
2017-09-18T12:00:55.995Z,1.27
2017-09-18T12:01:58.484Z,1.65
2017-09-18T12:03:00.994Z,1.37
2017-09-18T12:04:03.459Z,1.37
2017-09-18T12:05:05.925Z,1.73
2017-09-18T12:06:08.542Z,1.20
2017-09-18T12:07:11.099Z,2.35
2017-09-18T12:08:15.267Z,1.30
2017-09-18T12:09:17.832Z,1.80
2017-09-18T12:10:21.092Z,2.37
2017-09-18T12:11:23.778Z,1.48
2017-09-18T12:12:27.077Z,1.40
2017-09-18T12:13:29.788Z,3.00
2017-09-18T12:14:32.253Z,2.12
2017-09-18T12:15:35.552Z,2.35
2017-09-18T12:16:38.073Z,1.30
2017-09-18T12:17:40.590Z,4.82
2017-09-18T12:18:43.845Z,2.70
2017-09-18T12:19:46.391Z,2.90
2017-09-18T12:20:48.878Z,1.95
2017-09-18T12:21:52.363Z,1.50
2017-09-18T12:22:54.855Z,3.87
2017-09-18T12:23:58.332Z,6.70
2017-09-18T12:25:00.959Z,2.45
2017-09-18T12:26:03.466Z,3.62
2017-09-18T12:27:10.419Z,3.17
2017-09-18T12:28:12.974Z,3.05
2017-09-18T12:29:16.382Z,2.80
2017-09-18T12:30:19.028Z,2.67
2017-09-18T12:31:21.519Z,1.75
2017-09-18T12:32:24.112Z,1.50
2017-09-18T12:33:27.387Z,1.50
2017-09-18T12:34:29.888Z,1.40
2017-09-18T12:35:32.414Z,2.55
2017-09-18T12:36:34.979Z,1.48
2017-09-18T12:37:37.492Z,1.80
2017-09-18T12:38:40.009Z,1.60
2017-09-18T12:39:43.234Z,2.47
2017-09-18T12:40:45.807Z,1.20
2017-09-18T12:41:48.321Z,1.00
2017-09-18T12:42:50.839Z,2.65
2017-09-18T12:43:53.427Z,2.33
2017-09-18T12:44:56.027Z,1.85
2017-09-18T12:45:58.728Z,1.85
2017-09-18T12:47:01.245Z,1.60
2017-09-18T12:48:04.484Z,5.78
2017-09-18T12:49:07.059Z,2.22
2017-09-18T12:50:09.582Z,2.35
2017-09-18T12:51:12.126Z,1.65
2017-09-18T12:52:14.604Z,1.45
2017-09-18T12:53:17.167Z,3.37
2017-09-18T12:54:19.709Z,3.45
2017-09-18T12:55:22.192Z,3.40
2017-09-18T12:56:24.782Z,1.40
2017-09-18T12:57:27.311Z,1.48
2017-09-18T12:58:30.685Z,1.20
2017-09-18T12:59:33.242Z,1.40
2017-09-18T13:00:35.860Z,1.40
2017-09-18T13:01:38.674Z,1.50
2017-09-18T13:02:41.148Z,1.40
2017-09-18T13:03:43.692Z,1.65
2017-09-18T13:04:46.989Z,1.65
2017-09-18T13:05:49.647Z,3.83
2017-09-18T13:06:52.229Z,1.60
2017-09-18T13:07:54.906Z,3.62
2017-09-18T13:08:57.413Z,2.78
2017-09-18T13:10:00.005Z,1.98
2017-09-18T13:11:02.499Z,1.30
2017-09-18T13:12:06.176Z,1.83
2017-09-18T13:13:08.685Z,2.00
2017-09-18T13:14:11.241Z,1.70
2017-09-18T13:15:13.706Z,1.75
2017-09-18T13:16:16.169Z,2.95
2017-09-18T13:17:18.639Z,3.90
2017-09-18T13:18:21.131Z,1.50
2017-09-18T13:19:23.616Z,1.83
2017-09-18T13:20:26.200Z,2.05
2017-09-18T13:21:28.661Z,1.95
2017-09-18T13:22:31.115Z,4.28
2017-09-18T13:23:33.576Z,2.25
2017-09-18T13:24:36.187Z,2.20
2017-09-18T13:25:38.724Z,1.52
2017-09-18T13:26:41.185Z,1.80
2017-09-18T13:27:43.641Z,3.30
2017-09-18T13:28:46.873Z,1.80
2017-09-18T13:29:50.235Z,1.83
2017-09-18T13:30:52.765Z,1.75
2017-09-18T13:31:55.286Z,2.53
2017-09-18T13:32:57.809Z,1.60
2017-09-18T13:34:00.281Z,4.05
2017-09-18T13:35:02.763Z,1.55
2017-09-18T13:36:06.059Z,2.95
2017-09-18T13:37:09.358Z,1.75
2017-09-18T13:38:11.879Z,4.10
2017-09-18T13:39:14.511Z,1.42
2017-09-18T13:40:18.026Z,2.03
2017-09-18T13:41:20.479Z,5.82
2017-09-18T13:42:22.952Z,2.12
2017-09-18T13:43:25.416Z,1.87